Time;durP1;ratioP1;P1;durP2;ratioP2;P2;SDS_P1;SDS_P2;PMS_P1;PMS_P2;Temp;Humidity;BMP_temperature;BMP_pressure;BME280_temperature;BME280_humidity;BME280_pressure;Samples;Min_cycle;Max_cycle;Signal;HPM_P1;HPM_P2
2022/04/21 00:00:49;;;;;;;2.77;2.33;;;22.60;36.90;;;;;;5022541;28;88390;-72
2022/04/21 00:03:17;;;;;;;1.73;1.63;;;22.60;36.90;;;;;;5025785;27;88611;-72
2022/04/21 00:05:45;;;;;;;3.87;2.17;;;22.60;36.80;;;;;;5056386;27;89552;-72
2022/04/21 00:08:16;;;;;;;2.47;1.80;;;22.60;36.90;;;;;;5043672;28;92612;-72
2022/04/21 00:10:45;;;;;;;3.50;2.03;;;22.50;36.80;;;;;;5054002;27;88260;-72
2022/04/21 00:13:13;;;;;;;2.00;1.87;;;22.50;36.80;;;;;;5042733;27;88620;-72
2022/04/21 00:15:42;;;;;;;2.17;1.57;;;22.50;36.80;;;;;;5042678;28;90753;-72
2022/04/21 00:18:10;;;;;;;3.57;1.70;;;22.50;36.90;;;;;;5042584;28;90293;-73
2022/04/21 00:20:39;;;;;;;2.03;1.73;;;22.50;36.90;;;;;;5060856;27;89024;-73
2022/04/21 00:25:54;;;;;;;2.60;1.93;;;22.50;36.90;;;;;;5022044;28;89969;-72
2022/04/21 00:28:22;;;;;;;3.17;1.87;;;22.50;36.90;;;;;;5022283;27;89531;-72
2022/04/21 00:30:52;;;;;;;3.90;1.63;;;22.50;36.90;;;;;;5059402;27;88877;-72
2022/04/21 00:33:20;;;;;;;1.70;1.60;;;22.40;36.80;;;;;;5061417;27;88391;-72
2022/04/21 00:35:48;;;;;;;2.27;1.67;;;22.40;36.80;;;;;;5041903;28;92736;-72
2022/04/21 00:38:16;;;;;;;4.10;1.77;;;22.40;36.80;;;;;;5041917;28;89483;-73
2022/04/21 00:40:44;;;;;;;2.37;1.67;;;22.40;36.80;;;;;;5061239;27;88344;-72
2022/04/21 00:43:12;;;;;;;2.20;1.87;;;22.40;36.80;;;;;;5062134;27;88404;-72
2022/04/21 00:45:40;;;;;;;2.67;1.63;;;22.40;37.50;;;;;;5040617;27;89207;-72
2022/04/21 00:48:09;;;;;;;2.60;2.10;;;22.40;36.70;;;;;;5041038;27;88969;-72
2022/04/21 00:50:37;;;;;;;3.27;1.77;;;22.30;36.70;;;;;;5042994;27;90072;-72
2022/04/21 00:53:06;;;;;;;3.87;1.80;;;22.30;36.70;;;;;;5042234;28;88399;-72
2022/04/21 00:55:34;;;;;;;2.70;1.67;;;22.20;36.70;;;;;;5045454;27;91702;-72
2022/04/21 00:58:03;;;;;;;1.67;1.50;;;22.20;36.70;;;;;;5041187;28;90021;-72
2022/04/21 01:00:31;;;;;;;1.70;1.60;;;22.10;36.70;;;;;;5041580;27;88336;-72
2022/04/21 01:02:59;;;;;;;1.40;1.20;;;22.00;36.70;;;;;;5042035;27;88455;-72
2022/04/21 01:05:32;;;;;;;2.60;1.70;;;22.00;36.70;;;;;;5037043;27;90603;-72
2022/04/21 01:08:01;;;;;;;1.73;1.37;;;22.00;36.70;;;;;;5021462;28;90107;-72
2022/04/21 01:10:31;;;;;;;2.03;1.60;;;22.00;36.70;;;;;;5037515;27;88542;-72
2022/04/21 01:12:59;;;;;;;1.60;1.33;;;22.00;36.60;;;;;;5041689;28;88271;-74
2022/04/21 01:15:27;;;;;;;2.93;1.40;;;22.00;36.60;;;;;;5041440;27;89604;-73
2022/04/21 01:17:55;;;;;;;2.10;1.60;;;22.00;36.60;;;;;;5040439;28;89110;-73
2022/04/21 01:20:25;;;;;;;2.23;1.60;;;22.00;36.60;;;;;;5040940;27;88920;-72
2022/04/21 01:22:53;;;;;;;3.43;1.77;;;21.90;36.50;;;;;;5038941;28;88568;-72
2022/04/21 01:25:22;;;;;;;2.77;1.70;;;22.00;36.60;;;;;;5039812;27;90629;-72
2022/04/21 01:27:51;;;;;;;3.27;2.03;;;21.90;36.40;;;;;;5041450;28;89419;-72
2022/04/21 01:30:19;;;;;;;1.50;1.20;;;21.90;36.40;;;;;;5050018;27;88758;-73
2022/04/21 01:32:49;;;;;;;1.80;1.67;;;22.00;36.50;;;;;;5041562;28;88274;-73
2022/04/21 01:35:17;;;;;;;2.77;1.63;;;22.00;36.50;;;;;;5041624;27;93752;-72
2022/04/21 01:43:17;;;;;;;1.70;1.50;;;22.00;36.40;;;;;;5041683;28;88539;-72
2022/04/21 01:45:45;;;;;;;2.70;1.67;;;22.00;36.40;;;;;;5041318;27;89940;-72
2022/04/21 01:48:13;;;;;;;4.03;1.57;;;22.00;36.40;;;;;;5044759;27;88457;-72
2022/04/21 01:50:41;;;;;;;2.83;1.40;;;22.00;36.30;;;;;;5040970;27;88562;-72
2022/04/21 01:53:11;;;;;;;1.97;1.43;;;22.00;36.30;;;;;;5040970;27;89271;-73
2022/04/21 01:55:39;;;;;;;2.43;1.00;;;22.00;36.30;;;;;;5041773;27;90765;-72
2022/04/21 01:58:07;;;;;;;1.63;1.50;;;22.00;36.30;;;;;;5041249;27;89053;-72
2022/04/21 02:00:35;;;;;;;2.50;1.70;;;22.10;36.30;;;;;;5060395;27;88303;-72
2022/04/21 02:03:03;;;;;;;2.00;1.60;;;22.10;36.20;;;;;;5024591;27;88367;-72
2022/04/21 02:05:31;;;;;;;2.77;1.20;;;22.20;36.30;;;;;;5053926;27;89060;-72
2022/04/21 02:08:00;;;;;;;2.47;1.50;;;22.10;36.20;;;;;;5040739;27;89904;-72
2022/04/21 02:10:30;;;;;;;1.57;1.47;;;22.20;36.20;;;;;;5040594;27;88379;-72
2022/04/21 02:12:58;;;;;;;2.60;0.90;;;22.20;36.20;;;;;;5040614;27;88715;-72
2022/04/21 02:15:28;;;;;;;1.40;1.30;;;22.10;36.20;;;;;;5059491;27;90888;-72
2022/04/21 02:17:56;;;;;;;2.30;1.40;;;22.20;36.20;;;;;;5061494;27;88968;-71
2022/04/21 02:20:24;;;;;;;4.63;1.43;;;22.10;36.20;;;;;;5040873;27;88673;-71
2022/04/21 02:22:52;;;;;;;1.47;1.30;;;22.10;36.20;;;;;;5040057;28;88679;-71
2022/04/21 02:25:20;;;;;;;1.30;1.20;;;22.10;36.20;;;;;;5040712;27;93787;-71
2022/04/21 02:27:51;;;;;;;2.10;1.20;;;22.10;36.20;;;;;;5039892;28;90818;-71
2022/04/21 02:30:19;;;;;;;1.30;1.20;;;22.10;36.20;;;;;;5058187;27;92272;-71
2022/04/21 02:32:47;;;;;;;1.20;1.07;;;22.20;36.20;;;;;;5060596;27;88487;-71
2022/04/21 02:35:16;;;;;;;2.17;1.23;;;22.10;36.10;;;;;;5058638;27;90600;-71
2022/04/21 02:37:44;;;;;;;2.50;1.57;;;22.10;36.10;;;;;;5048553;27;88505;-71
2022/04/21 02:40:12;;;;;;;1.33;1.23;;;22.10;36.10;;;;;;5056180;27;88858;-71
2022/04/21 02:42:40;;;;;;;1.43;1.30;;;22.10;36.20;;;;;;5060253;27;88502;-72
2022/04/21 02:45:11;;;;;;;1.77;1.40;;;22.00;36.10;;;;;;5043260;27;89995;-71
2022/04/21 02:47:40;;;;;;;2.30;1.60;;;22.00;36.10;;;;;;5039367;27;89370;-71
2022/04/21 02:50:08;;;;;;;1.70;1.10;;;22.00;36.20;;;;;;5055653;27;91075;-71
2022/04/21 02:52:36;;;;;;;2.27;1.23;;;22.00;36.20;;;;;;5053897;27;88545;-71
2022/04/21 02:57:51;;;;;;;1.23;1.03;;;22.00;36.20;;;;;;5039827;28;90389;-71
2022/04/21 03:00:20;;;;;;;2.03;1.40;;;22.00;36.10;;;;;;5039635;28;88899;-71
2022/04/21 03:02:48;;;;;;;1.30;1.20;;;21.90;36.10;;;;;;5040301;28;88446;-71
2022/04/21 03:05:16;;;;;;;1.50;1.30;;;21.90;36.10;;;;;;5039377;27;89955;-70
2022/04/21 03:07:44;;;;;;;1.37;1.27;;;22.00;36.20;;;;;;5031097;28;89847;-71
2022/04/21 03:10:12;;;;;;;2.33;1.80;;;22.00;36.10;;;;;;5049931;27;88954;-71
2022/04/21 03:12:40;;;;;;;3.20;1.07;;;22.00;36.10;;;;;;5060373;27;88602;-71
2022/04/21 03:15:11;;;;;;;1.43;1.20;;;21.90;36.10;;;;;;5051974;27;90722;-71
2022/04/21 03:17:40;;;;;;;1.20;1.10;;;21.90;36.10;;;;;;5042545;27;90575;-71
2022/04/21 03:24:18;;;;;;;2.72;1.63;;;21.90;36.10;;;;;;5044684;27;89693;-67
2022/04/21 03:25:44;;;;;;;2.17;1.30;;;22.00;36.20;;;;;;5056231;27;91014;-67
2022/04/21 03:28:12;;;;;;;1.50;1.40;;;22.10;36.20;;;;;;5039275;27;88624;-67
2022/04/21 03:30:40;;;;;;;1.50;1.10;;;22.10;36.20;;;;;;5038551;27;88435;-71
2022/04/21 03:33:10;;;;;;;1.63;1.53;;;22.10;36.30;;;;;;5041273;27;88406;-71
2022/04/21 03:35:38;;;;;;;1.83;1.10;;;22.00;36.30;;;;;;5038866;27;89560;-72
2022/04/21 03:38:06;;;;;;;2.30;1.50;;;22.00;36.30;;;;;;5038212;27;88234;-71
2022/04/21 03:40:34;;;;;;;2.07;1.37;;;21.90;36.30;;;;;;5051537;27;88713;-72
2022/04/21 03:43:02;;;;;;;1.00;0.97;;;21.90;36.40;;;;;;5043988;27;88542;-71
2022/04/21 03:45:30;;;;;;;3.83;1.50;;;21.90;36.40;;;;;;5039116;27;93048;-71
2022/04/21 03:48:01;;;;;;;1.43;1.33;;;21.90;36.40;;;;;;5038073;28;89079;-72
2022/04/21 03:50:31;;;;;;;1.50;1.17;;;21.90;36.40;;;;;;5038356;27;88835;-71
2022/04/21 03:52:59;;;;;;;1.33;1.23;;;21.90;36.40;;;;;;5035499;28;88235;-71
2022/04/21 03:55:27;;;;;;;1.97;1.60;;;21.80;36.40;;;;;;5039618;28;90597;-71
2022/04/21 03:57:55;;;;;;;2.43;1.60;;;21.80;36.40;;;;;;5039071;28;90973;-73
2022/04/21 04:00:23;;;;;;;2.93;1.63;;;21.80;36.50;;;;;;5039015;27;88868;-72
2022/04/21 04:02:51;;;;;;;1.77;1.40;;;21.80;36.50;;;;;;5039555;28;88196;-72
2022/04/21 04:05:19;;;;;;;2.67;1.30;;;21.70;36.40;;;;;;5039628;28;89247;-71
2022/04/21 04:10:54;;;;;;;3.03;1.77;;;21.70;36.40;;;;;;5053303;27;89797;-72
2022/04/21 04:13:22;;;;;;;4.97;1.83;;;21.70;36.40;;;;;;5055459;27;88518;-72
2022/04/21 04:15:51;;;;;;;2.03;1.53;;;21.70;36.40;;;;;;5050157;27;93588;-72
2022/04/21 04:18:19;;;;;;;2.57;1.50;;;21.70;36.40;;;;;;5048659;27;89549;-71
2022/04/21 04:20:47;;;;;;;1.87;1.40;;;21.70;36.40;;;;;;5043649;27;88925;-71
2022/04/21 04:23:17;;;;;;;1.80;1.53;;;21.80;36.50;;;;;;5047257;27;88600;-71
2022/04/21 04:25:44;;;;;;;1.23;1.07;;;21.80;36.50;;;;;;5051355;27;88388;-71
2022/04/21 04:28:13;;;;;;;1.53;0.93;;;21.80;37.00;;;;;;5059326;27;90135;-71
2022/04/21 04:30:42;;;;;;;2.07;1.20;;;21.80;36.40;;;;;;5043466;27;88688;-72
2022/04/21 04:33:10;;;;;;;1.40;1.23;;;21.80;36.40;;;;;;5041612;27;88646;-71
2022/04/21 04:35:38;;;;;;;1.37;1.20;;;21.80;36.40;;;;;;5029706;27;89916;-71
2022/04/21 04:38:07;;;;;;;1.57;1.13;;;21.80;36.40;;;;;;5059790;27;89285;-71
2022/04/21 04:40:37;;;;;;;1.10;1.00;;;21.80;36.40;;;;;;5053223;27;88550;-71
2022/04/21 04:43:04;;;;;;;1.63;1.37;;;21.80;36.40;;;;;;5050488;27;88405;-71
2022/04/21 04:48:18;;;;;;;4.47;1.30;;;21.80;36.40;;;;;;5043747;27;89861;-71
2022/04/21 04:50:47;;;;;;;2.27;1.70;;;21.80;36.40;;;;;;5054151;27;89496;-71
2022/04/21 04:53:15;;;;;;;2.00;1.43;;;21.80;36.40;;;;;;5042526;27;88526;-71
2022/04/21 04:55:44;;;;;;;1.70;1.13;;;21.80;36.40;;;;;;5041521;27;90893;-71
2022/04/21 04:58:13;;;;;;;2.00;1.17;;;21.80;36.40;;;;;;5051832;27;89379;-71
2022/04/21 05:00:41;;;;;;;1.23;1.13;;;21.80;36.30;;;;;;5040949;27;89813;-71
2022/04/21 05:03:09;;;;;;;1.57;1.37;;;21.90;36.40;;;;;;5041371;27;88476;-70
2022/04/21 05:05:37;;;;;;;2.47;1.73;;;21.90;36.30;;;;;;5048727;27;92013;-71
2022/04/21 05:08:06;;;;;;;1.33;1.23;;;21.90;36.30;;;;;;5059606;27;89600;-71
2022/04/21 05:10:34;;;;;;;1.90;1.70;;;21.90;36.30;;;;;;5061758;27;89077;-72
2022/04/21 05:13:03;;;;;;;2.10;1.60;;;21.90;36.30;;;;;;5045819;27;88397;-72
2022/04/21 05:15:31;;;;;;;1.27;1.17;;;21.90;36.20;;;;;;5043665;27;90745;-72
2022/04/21 05:18:01;;;;;;;1.87;1.50;;;21.90;36.20;;;;;;5042342;27;90087;-72
2022/04/21 05:20:29;;;;;;;3.43;2.03;;;21.90;36.20;;;;;;5038714;27;92272;-76
2022/04/21 05:23:05;;;;;;;2.20;1.40;;;21.90;36.20;;;;;;5044888;27;88421;-76
2022/04/21 05:25:36;;;;;;;4.60;2.10;;;21.80;36.10;;;;;;5041238;27;90228;-76
2022/04/21 05:28:10;;;;;;;6.50;3.83;;;21.90;36.20;;;;;;5041882;27;88787;-77
2022/04/21 05:30:56;;;;;;;6.67;3.70;;;21.90;36.30;;;;;;5047050;27;88547;-75
2022/04/21 05:33:25;;;;;;;6.10;2.57;;;21.90;36.40;;;;;;5052113;27;89280;-75
2022/04/21 05:35:54;;;;;;;6.37;3.33;;;21.90;37.10;;;;;;5046983;27;89866;-74
2022/04/21 05:38:23;;;;;;;6.73;2.63;;;21.90;36.50;;;;;;5043028;27;89025;-79
2022/04/21 05:40:52;;;;;;;4.33;2.50;;;22.00;36.70;;;;;;5057317;27;90632;-75
2022/04/21 05:43:21;;;;;;;12.57;2.90;;;22.00;36.80;;;;;;5053034;27;88619;-74
2022/04/21 05:45:50;;;;;;;5.33;2.97;;;22.00;36.80;;;;;;5060032;27;90943;-76
2022/04/21 05:48:19;;;;;;;5.70;3.13;;;22.00;36.90;;;;;;5057818;27;88933;-69
2022/04/21 05:50:48;;;;;;;10.70;3.47;;;22.10;37.20;;;;;;5050699;27;90942;-66
2022/04/21 05:53:21;;;;;;;11.67;2.80;;;22.10;37.30;;;;;;5060652;27;88676;-66
2022/04/21 05:55:49;;;;;;;8.10;3.73;;;22.10;37.40;;;;;;5051632;27;90747;-67
2022/04/21 05:58:17;;;;;;;6.80;3.50;;;22.00;38.20;;;;;;5054944;27;89339;-66
2022/04/21 06:00:47;;;;;;;6.90;2.93;;;22.30;38.30;;;;;;5052975;27;88732;-68
2022/04/21 06:03:22;;;;;;;3.27;2.20;;;22.30;38.20;;;;;;5044238;27;88648;-67
2022/04/21 06:05:50;;;;;;;6.47;2.30;;;22.40;38.10;;;;;;5055259;27;90257;-67
2022/04/21 06:08:18;;;;;;;5.90;1.93;;;22.40;38.10;;;;;;5035804;27;89921;-68
2022/04/21 06:10:46;;;;;;;4.93;2.40;;;22.40;38.10;;;;;;5041979;27;89912;-70
2022/04/21 06:13:15;;;;;;;3.50;1.70;;;22.50;38.20;;;;;;5044742;27;88556;-66
2022/04/21 06:15:43;;;;;;;3.33;2.07;;;22.50;38.20;;;;;;5039674;27;89708;-67
2022/04/21 06:18:13;;;;;;;3.53;1.83;;;22.50;38.30;;;;;;5050679;27;89988;-65
2022/04/21 06:20:41;;;;;;;3.77;2.33;;;22.50;38.30;;;;;;5040037;27;90739;-67
2022/04/21 06:23:09;;;;;;;5.20;1.90;;;22.50;38.20;;;;;;5047433;27;88707;-70
2022/04/21 06:25:41;;;;;;;3.07;1.43;;;22.40;37.50;;;;;;5043336;27;89724;-69
2022/04/21 06:28:10;;;;;;;3.93;1.63;;;22.40;38.10;;;;;;5048297;27;89150;-70
2022/04/21 06:30:38;;;;;;;2.53;1.63;;;22.40;38.10;;;;;;5037693;28;88454;-69
2022/04/21 06:33:06;;;;;;;1.23;1.13;;;22.40;38.00;;;;;;5039814;27;88641;-70
2022/04/21 06:35:36;;;;;;;4.97;1.90;;;22.40;38.00;;;;;;5039260;27;91756;-70
2022/04/21 06:38:06;;;;;;;3.30;1.80;;;22.40;37.90;;;;;;5037881;27;89929;-66
2022/04/21 06:40:34;;;;;;;1.40;1.27;;;22.40;37.80;;;;;;5037803;27;89955;-66
2022/04/21 06:48:01;;;;;;;1.60;1.40;;;22.40;37.80;;;;;;5039085;27;88319;-67
2022/04/21 06:48:37;;;;;;;3.43;1.87;;;22.40;37.60;;;;;;5040285;27;89505;-66
2022/04/21 06:51:07;;;;;;;2.07;1.40;;;22.40;37.60;;;;;;5039656;28;89035;-66
2022/04/21 06:53:35;;;;;;;2.00;1.33;;;22.30;37.40;;;;;;5040268;28;88365;-66
2022/04/21 06:56:04;;;;;;;1.80;1.70;;;22.30;37.40;;;;;;5040035;28;90515;-66
2022/04/21 06:58:32;;;;;;;1.87;1.30;;;22.30;37.40;;;;;;5039664;28;93226;-66
2022/04/21 07:01:00;;;;;;;1.67;1.30;;;22.30;37.30;;;;;;5038720;27;90707;-66
2022/04/21 07:03:28;;;;;;;2.17;1.37;;;22.30;37.30;;;;;;5039211;28;88399;-66
2022/04/21 07:05:56;;;;;;;1.50;1.30;;;22.30;37.30;;;;;;5040042;28;89521;-66
2022/04/21 07:08:26;;;;;;;1.50;1.23;;;22.20;37.10;;;;;;5039294;28;90042;-66
2022/04/21 07:10:54;;;;;;;2.00;1.57;;;22.20;37.10;;;;;;5040077;28;90550;-66
2022/04/21 07:13:22;;;;;;;1.70;1.60;;;22.20;37.10;;;;;;5039217;27;88657;-66
2022/04/21 07:15:50;;;;;;;1.80;1.40;;;22.20;37.10;;;;;;5039887;28;92633;-66
2022/04/21 07:18:18;;;;;;;1.70;1.60;;;22.20;37.00;;;;;;5039040;27;89205;-66
2022/04/21 07:20:46;;;;;;;2.13;1.37;;;22.20;37.00;;;;;;5038945;28;88830;-66
2022/04/21 07:23:14;;;;;;;1.57;1.43;;;22.20;36.90;;;;;;5039636;27;88619;-65
2022/04/21 07:25:44;;;;;;;1.23;1.10;;;22.20;36.90;;;;;;5039018;28;93900;-66
2022/04/21 07:28:12;;;;;;;1.57;1.20;;;22.20;36.90;;;;;;5038602;27;89369;-66
2022/04/21 07:30:40;;;;;;;2.10;1.47;;;22.20;36.80;;;;;;5038188;28;89757;-66
2022/04/21 07:33:08;;;;;;;2.50;1.70;;;22.20;36.80;;;;;;5039770;27;89593;-65
2022/04/21 07:35:37;;;;;;;2.17;1.80;;;22.20;36.70;;;;;;5038569;28;90583;-66
2022/04/21 07:38:05;;;;;;;2.30;1.33;;;22.20;36.70;;;;;;5038974;28;89032;-66
2022/04/21 07:40:35;;;;;;;1.77;1.33;;;22.20;36.70;;;;;;5038662;28;88508;-66
2022/04/21 07:43:08;;;;;;;2.50;1.40;;;22.20;36.60;;;;;;5038620;28;88718;-65
2022/04/21 07:45:38;;;;;;;2.50;1.60;;;22.20;36.60;;;;;;5020640;28;89981;-66
2022/04/21 07:48:06;;;;;;;1.70;1.27;;;22.20;36.60;;;;;;5038727;27;89088;-66
2022/04/21 07:50:35;;;;;;;1.40;1.20;;;22.20;36.90;;;;;;5038923;28;88791;-66
2022/04/21 07:53:20;;;;;;;2.17;1.50;;;22.20;36.50;;;;;;5035981;28;90132;-65
2022/04/21 07:55:50;;;;;;;0.80;0.80;;;22.20;36.50;;;;;;5041816;28;89339;-66
2022/04/21 07:58:21;;;;;;;2.13;1.50;;;22.20;36.50;;;;;;5041800;27;90021;-66
2022/04/21 08:00:50;;;;;;;1.57;1.10;;;22.20;37.10;;;;;;5041541;27;88530;-66
2022/04/21 08:03:19;;;;;;;1.60;1.20;;;22.20;36.50;;;;;;5037721;28;90084;-66
2022/04/21 08:05:48;;;;;;;1.13;0.97;;;22.20;36.40;;;;;;5041381;27;90446;-66
2022/04/21 08:08:16;;;;;;;1.40;1.00;;;22.20;36.40;;;;;;5041927;28;89056;-66
2022/04/21 08:10:44;;;;;;;2.77;1.30;;;22.20;36.40;;;;;;5041669;27;88561;-66
2022/04/21 08:13:17;;;;;;;1.40;1.30;;;22.20;36.40;;;;;;5038242;28;88542;-67
2022/04/21 08:15:49;;;;;;;1.47;1.00;;;22.20;36.30;;;;;;5041680;28;90715;-66
2022/04/21 08:18:18;;;;;;;1.27;1.00;;;22.20;36.20;;;;;;5041577;28;89999;-66
2022/04/21 08:20:46;;;;;;;1.30;1.00;;;22.20;36.20;;;;;;5038547;28;90188;-66
2022/04/21 08:23:14;;;;;;;1.13;1.03;;;22.20;36.20;;;;;;5042297;28;88512;-67
2022/04/21 08:34:27;;;;;;;2.10;1.47;;;22.10;36.10;;;;;;5040678;27;88467;-66
2022/04/21 08:36:55;;;;;;;1.10;1.00;;;22.10;36.20;;;;;;5036125;27;89929;-66
2022/04/21 08:39:23;;;;;;;2.20;1.10;;;22.00;36.10;;;;;;5041507;28;90002;-66
2022/04/21 08:41:53;;;;;;;2.07;1.10;;;22.00;36.20;;;;;;5041285;28;88863;-67
2022/04/21 08:44:21;;;;;;;3.13;1.20;;;21.90;36.20;;;;;;5041555;28;88373;-66
2022/04/21 08:46:51;;;;;;;2.17;1.17;;;22.00;36.20;;;;;;5041503;28;90483;-66
2022/04/21 08:49:21;;;;;;;1.80;1.30;;;21.90;36.20;;;;;;5021787;28;92535;-66
2022/04/21 08:51:49;;;;;;;1.20;1.10;;;22.00;36.30;;;;;;5040184;28;90447;-67
2022/04/21 08:54:18;;;;;;;3.07;1.20;;;22.00;36.20;;;;;;5041327;28;90100;-67
2022/04/21 08:56:47;;;;;;;1.47;0.90;;;22.10;36.30;;;;;;5041490;28;90794;-66
2022/04/21 08:59:16;;;;;;;2.00;1.40;;;22.10;36.30;;;;;;5041008;28;90412;-67
2022/04/21 09:01:44;;;;;;;1.70;1.10;;;22.10;36.30;;;;;;5041619;28;88458;-66
2022/04/21 09:04:14;;;;;;;1.57;1.43;;;22.10;36.30;;;;;;5041121;28;88362;-66
2022/04/21 09:06:42;;;;;;;1.57;1.10;;;22.10;36.30;;;;;;5040422;27;90327;-66
2022/04/21 09:09:14;;;;;;;1.40;1.30;;;22.10;36.40;;;;;;5040702;28;88848;-66
2022/04/21 09:11:43;;;;;;;1.30;1.20;;;22.10;36.40;;;;;;5041348;27;88385;-66
2022/04/21 09:14:15;;;;;;;2.27;1.37;;;22.10;36.40;;;;;;5041326;27;88621;-67
2022/04/21 09:16:43;;;;;;;1.60;1.00;;;22.10;36.40;;;;;;5020861;28;90156;-66
2022/04/21 09:19:11;;;;;;;1.33;1.10;;;22.10;36.40;;;;;;5031081;27;90196;-66
2022/04/21 09:21:41;;;;;;;1.63;1.43;;;22.00;36.40;;;;;;5039525;27;89180;-67
2022/04/21 09:24:22;;;;;;;1.27;1.17;;;22.10;36.50;;;;;;5039550;28;88655;-66
2022/04/21 09:26:50;;;;;;;1.43;0.93;;;22.00;36.50;;;;;;5041441;27;89667;-66
2022/04/21 09:29:25;;;;;;;1.53;0.80;;;22.10;37.10;;;;;;5040391;28;90033;-66
2022/04/21 09:31:57;;;;;;;1.43;1.20;;;22.00;36.50;;;;;;5040308;28;89169;-67
2022/04/21 09:34:33;;;;;;;1.40;1.30;;;22.00;36.50;;;;;;5039595;28;88516;-66
2022/04/21 09:37:03;;;;;;;1.53;1.20;;;22.00;36.50;;;;;;5040514;27;90798;-66
2022/04/21 09:39:31;;;;;;;9.27;1.10;;;21.90;36.40;;;;;;5040206;27;90015;-66
2022/04/21 09:41:59;;;;;;;1.03;0.93;;;22.00;36.50;;;;;;5041537;28;88803;-66
2022/04/21 09:47:19;;;;;;;1.47;1.37;;;22.00;36.50;;;;;;5040432;27;89565;-67
2022/04/21 09:49:47;;;;;;;1.50;1.40;;;22.00;37.00;;;;;;5040531;28;90041;-66
2022/04/21 09:52:25;;;;;;;2.93;1.43;;;22.00;36.40;;;;;;5040173;28;88951;-66
2022/04/21 09:54:54;;;;;;;1.20;1.10;;;21.90;36.40;;;;;;5040149;28;88585;-66
2022/04/21 09:57:29;;;;;;;1.43;1.13;;;21.80;36.40;;;;;;5039955;27;89625;-66
2022/04/21 09:59:58;;;;;;;3.20;1.10;;;21.70;36.40;;;;;;5028968;28;91623;-66
2022/04/21 10:02:27;;;;;;;1.17;1.00;;;21.70;36.30;;;;;;5040157;27;88663;-66
2022/04/21 10:04:55;;;;;;;1.40;1.30;;;21.70;36.40;;;;;;5036027;28;88533;-66
2022/04/21 10:07:25;;;;;;;3.23;1.47;;;21.60;36.40;;;;;;5040617;28;92465;-66
2022/04/21 10:09:54;;;;;;;1.30;1.10;;;21.60;36.40;;;;;;5039820;28;89130;-66
2022/04/21 10:12:22;;;;;;;1.00;0.90;;;21.70;36.40;;;;;;5040203;28;88734;-66
2022/04/21 10:14:51;;;;;;;1.30;1.07;;;21.80;36.40;;;;;;5040305;28;88552;-66
2022/04/21 10:17:19;;;;;;;1.40;1.20;;;21.80;36.30;;;;;;5040307;27;89540;-66
2022/04/21 10:19:50;;;;;;;1.50;0.90;;;21.80;36.20;;;;;;5038448;28;90151;-67
2022/04/21 10:22:26;;;;;;;1.70;0.93;;;21.70;36.20;;;;;;5037712;28;88823;-66
2022/04/21 10:24:55;;;;;;;1.20;0.90;;;21.70;36.10;;;;;;5037790;27;88622;-66
2022/04/21 10:27:40;;;;;;;1.23;1.13;;;21.70;36.10;;;;;;5038957;28;90730;-66
2022/04/21 10:30:15;;;;;;;2.50;1.00;;;21.70;36.20;;;;;;5039906;27;90494;-67
2022/04/21 10:32:50;;;;;;;2.13;1.00;;;21.80;36.20;;;;;;5039988;28;90629;-66
2022/04/21 10:35:42;;;;;;;1.23;1.10;;;21.80;36.10;;;;;;5039176;28;88448;-67
2022/04/21 10:38:25;;;;;;;0.80;0.80;;;21.80;36.80;;;;;;5036890;28;91015;-66
2022/04/21 10:41:06;;;;;;;1.40;1.30;;;21.80;36.10;;;;;;5037362;28;90200;-66
2022/04/21 10:44:03;;;;;;;1.97;1.57;;;21.80;36.10;;;;;;5031899;28;91205;-66
2022/04/21 10:46:31;;;;;;;3.53;1.10;;;21.80;36.10;;;;;;5036705;28;88701;-66
2022/04/21 10:48:59;;;;;;;3.07;1.30;;;21.80;36.10;;;;;;5037007;28;90959;-66
2022/04/21 10:58:52;;;;;;;1.60;1.20;;;21.90;36.20;;;;;;5039451;27;88629;-66
2022/04/21 11:01:31;;;;;;;2.10;1.20;;;21.90;36.20;;;;;;5039315;28;89489;-66
2022/04/21 11:04:21;;;;;;;1.47;1.13;;;22.00;36.20;;;;;;5039693;28;89608;-66
2022/04/21 11:07:10;;;;;;;4.87;1.20;;;21.90;36.20;;;;;;5037666;27;88358;-66
2022/04/21 11:09:39;;;;;;;1.43;1.07;;;22.00;36.20;;;;;;5039183;27;88626;-66
2022/04/21 11:12:49;;;;;;;0.97;0.80;;;22.00;36.00;;;;;;5039628;28;92291;-66
2022/04/21 11:15:50;;;;;;;1.23;1.13;;;21.90;36.00;;;;;;5039385;28;92470;-66
2022/04/21 11:18:20;;;;;;;2.70;1.10;;;21.80;35.80;;;;;;5039607;27;88851;-67
2022/04/21 11:20:48;;;;;;;2.50;0.90;;;21.90;35.80;;;;;;5039923;28;88375;-66
2022/04/21 11:23:23;;;;;;;2.40;1.03;;;21.90;35.80;;;;;;5039474;28;90041;-66
2022/04/21 11:25:52;;;;;;;1.50;1.23;;;22.00;35.80;;;;;;5040238;28;89479;-66
2022/04/21 11:28:26;;;;;;;2.07;1.30;;;22.10;35.70;;;;;;5039619;28;90766;-66
2022/04/21 11:30:56;;;;;;;1.30;1.20;;;22.00;35.50;;;;;;5042855;27;88378;-66
2022/04/21 11:33:24;;;;;;;2.57;1.00;;;22.00;35.40;;;;;;5042673;28;89283;-67
2022/04/21 11:36:02;;;;;;;1.83;1.10;;;22.10;35.40;;;;;;5042685;28;92608;-66
2022/04/21 11:38:30;;;;;;;1.27;1.10;;;22.10;35.40;;;;;;5043039;28;88799;-66
2022/04/21 11:41:00;;;;;;;1.13;0.90;;;22.10;35.20;;;;;;5043358;27;88577;-66
2022/04/21 11:43:30;;;;;;;1.17;1.07;;;22.10;35.10;;;;;;5042568;28;90714;-66
2022/04/21 11:45:58;;;;;;;1.13;0.80;;;22.10;34.90;;;;;;5042996;28;88823;-66
2022/04/21 11:48:30;;;;;;;1.30;0.97;;;22.10;34.80;;;;;;5043151;28;88566;-66
2022/04/21 11:50:59;;;;;;;1.07;0.90;;;22.10;34.70;;;;;;5043130;28;88442;-67
2022/04/21 11:53:28;;;;;;;1.30;1.20;;;22.10;34.60;;;;;;5041502;27;89994;-66
2022/04/21 11:55:56;;;;;;;1.43;1.00;;;22.10;34.50;;;;;;5042787;28;89481;-66
2022/04/21 11:58:29;;;;;;;1.30;1.10;;;22.20;34.60;;;;;;5043028;28;88851;-66
2022/04/21 12:06:39;;;;;;;0.70;0.67;;;22.10;34.00;;;;;;5042825;27;88755;-66
2022/04/21 12:09:08;;;;;;;0.90;0.80;;;22.10;33.90;;;;;;5042646;28;88882;-66
2022/04/21 12:11:36;;;;;;;1.70;1.00;;;22.00;33.70;;;;;;5043830;27;88407;-65
2022/04/21 12:14:06;;;;;;;1.10;1.00;;;22.10;33.70;;;;;;5043196;28;90680;-66
2022/04/21 12:16:41;;;;;;;2.10;1.10;;;22.10;33.50;;;;;;5043297;28;88931;-66
2022/04/21 12:19:28;;;;;;;0.97;0.80;;;22.00;33.30;;;;;;5042430;28;88255;-66
2022/04/21 12:22:01;;;;;;;1.33;0.90;;;22.00;33.30;;;;;;5043116;27;88655;-66
2022/04/21 12:24:37;;;;;;;1.23;1.10;;;22.10;33.20;;;;;;5042762;28;90787;-66
2022/04/21 12:27:05;;;;;;;0.80;0.80;;;22.10;33.10;;;;;;5011385;27;91857;-66
2022/04/21 12:29:46;;;;;;;0.80;0.70;;;22.10;33.00;;;;;;4982327;28;88418;-65
2022/04/21 12:32:17;;;;;;;0.90;0.70;;;22.10;32.90;;;;;;4981672;28;88684;-66
2022/04/21 12:34:45;;;;;;;1.13;1.00;;;22.10;32.80;;;;;;4982513;28;89001;-67
2022/04/21 12:37:13;;;;;;;2.13;1.00;;;22.10;32.70;;;;;;4982026;28;89271;-66
2022/04/21 12:39:41;;;;;;;0.83;0.83;;;22.10;32.70;;;;;;4981918;28;92224;-66
2022/04/21 12:42:29;;;;;;;2.40;1.33;;;22.00;32.50;;;;;;4982027;28;88691;-66
2022/04/21 12:44:59;;;;;;;2.57;1.10;;;22.10;32.60;;;;;;4981089;28;90187;-66
2022/04/21 12:47:28;;;;;;;1.40;1.30;;;22.20;32.60;;;;;;4981432;28;90012;-66
2022/04/21 12:49:57;;;;;;;1.00;0.83;;;22.20;32.60;;;;;;4980389;28;88452;-67
2022/04/21 12:52:36;;;;;;;1.10;0.93;;;22.20;32.40;;;;;;4981348;28;88640;-66
2022/04/21 12:55:07;;;;;;;1.37;1.00;;;22.20;32.30;;;;;;4978652;28;90608;-66
2022/04/21 12:57:35;;;;;;;1.17;0.97;;;22.10;32.20;;;;;;4980959;28;89216;-66
2022/04/21 13:00:08;;;;;;;2.83;1.10;;;22.10;32.20;;;;;;4976450;28;88480;-67
2022/04/21 13:02:36;;;;;;;0.90;0.90;;;22.10;32.10;;;;;;4980588;28;88563;-66
2022/04/21 13:05:05;;;;;;;1.00;0.87;;;22.10;32.00;;;;;;4981350;28;90910;-66
2022/04/21 13:07:33;;;;;;;1.20;0.97;;;22.10;32.00;;;;;;4980756;28;89706;-66
2022/04/21 13:10:01;;;;;;;0.80;0.80;;;22.10;32.00;;;;;;4980352;28;89291;-67
2022/04/21 13:12:30;;;;;;;1.30;1.10;;;22.20;32.00;;;;;;4987500;28;88623;-66
2022/04/21 13:14:58;;;;;;;2.60;1.00;;;22.20;32.00;;;;;;5000728;28;91138;-66
2022/04/21 13:17:28;;;;;;;0.93;0.87;;;22.20;32.00;;;;;;4990259;28;91917;-66
2022/04/21 13:19:56;;;;;;;1.13;1.03;;;22.20;31.80;;;;;;4990691;28;88560;-66
2022/04/21 13:22:23;;;;;;;0.87;0.87;;;22.10;31.70;;;;;;4981188;28;88566;-66
2022/04/21 13:24:51;;;;;;;2.77;1.00;;;22.10;31.60;;;;;;4975398;28;90576;-66
2022/04/21 13:27:22;;;;;;;1.90;1.00;;;22.10;31.60;;;;;;4978078;28;89699;-66
2022/04/21 13:29:50;;;;;;;0.93;0.87;;;22.20;31.60;;;;;;4978629;28;89903;-66
2022/04/21 13:35:06;;;;;;;1.40;0.80;;;22.20;31.50;;;;;;4976710;28;89685;-66
2022/04/21 13:37:34;;;;;;;0.93;0.83;;;22.20;31.40;;;;;;4978592;28;91671;-66
2022/04/21 13:40:04;;;;;;;1.00;0.93;;;22.30;31.50;;;;;;4977656;28;88619;-66
2022/04/21 13:42:32;;;;;;;5.90;1.50;;;22.40;31.50;;;;;;4977902;28;88538;-67
2022/04/21 13:45:01;;;;;;;1.50;1.13;;;22.40;31.40;;;;;;4980194;28;90585;-66
2022/04/21 13:47:48;;;;;;;0.90;0.80;;;22.40;31.30;;;;;;4974852;28;91583;-66
2022/04/21 13:50:18;;;;;;;0.73;0.73;;;22.40;31.40;;;;;;4980393;28;88552;-67